Flugwetter

METAR EDDW
2022/05/18 23:20 EDDW 182320Z AUTO VRB02KT CAVOK 17/14 Q1019
TAF EDDW
2022/05/18 18:27 TAF TAF EDDW 181700Z 1818/1918 VRB03KT CAVOK BECMG 1904/1906 15006KT BECMG 1909/1911 21010KT PROB30 TEMPO 1912/1918 26015G30KT TSRA SCT040CB BECMG 1915/1917 28010KT
METAR EDDH
2022/05/18 23:20 EDDH 182320Z AUTO 16007KT CAVOK 21/15 Q1019 NOSIG
TAF EDDH
2022/05/18 19:28 TAF AMD EDDH 181912Z 1819/1924 14009KT CAVOK BECMG 1820/1822 VRB03KT BECMG 1907/1909 20009KT PROB30 TEMPO 1913/1921 TSRA SCT040CB BECMG 1915/1917 28008KT TEMPO 1922/1924 BKN008
METAR VRMM
2022/05/18 23:00 VRMM 182300Z 23009KT 9999 FEW018TCU BKN120 27/25 Q1008 NOSIG
TAF VRMM
2022/05/18 18:21 TAF TAF VRMM 181700Z 1818/1924 27015KT 9999 FEW017TCU BKN120 1818/1824 25020G35KT 4000 TSRA SCT017CB

Quelle:

Bereitgestellt von den Servern der NOAA tgftp.nws.noaa.gov
Alle Angaben ohne Gewähr